createdAt,value
2023-01-13T00:00:16.394Z,27.93
2023-01-13T00:02:43.590Z,24.00
2023-01-13T00:05:11.357Z,23.93
2023-01-13T00:07:40.327Z,20.17
2023-01-13T00:10:11.548Z,31.97
2023-01-13T00:12:42.365Z,26.43
2023-01-13T00:15:11.203Z,21.13
2023-01-13T00:17:41.282Z,23.60
2023-01-13T00:20:10.109Z,23.13
2023-01-13T00:22:41.296Z,28.50
2023-01-13T00:25:08.749Z,24.63
2023-01-13T00:27:36.023Z,22.67
2023-01-13T00:30:03.907Z,42.60
2023-01-13T00:32:30.919Z,24.67
2023-01-13T00:34:59.041Z,27.43
2023-01-13T00:37:26.650Z,22.00
2023-01-13T00:39:53.983Z,31.90
2023-01-13T00:42:39.650Z,45.53
2023-01-13T00:45:07.088Z,28.40
2023-01-13T00:47:34.234Z,25.13
2023-01-13T00:50:01.177Z,35.67
2023-01-13T00:52:28.277Z,26.87
2023-01-13T00:54:55.233Z,30.10
2023-01-13T00:57:22.167Z,36.90
2023-01-13T00:59:49.733Z,47.63
2023-01-13T01:02:16.843Z,28.83
2023-01-13T01:04:43.899Z,38.03
2023-01-13T01:07:10.898Z,22.73
2023-01-13T01:09:39.497Z,30.67
2023-01-13T01:12:06.751Z,24.50
2023-01-13T01:14:33.927Z,24.00
2023-01-13T01:17:00.919Z,26.73
2023-01-13T01:19:27.963Z,21.53
2023-01-13T01:21:55.098Z,28.60
2023-01-13T01:24:22.192Z,31.00
2023-01-13T01:26:49.222Z,30.13
2023-01-13T01:29:16.432Z,24.77
2023-01-13T01:31:43.820Z,24.23
2023-01-13T01:34:10.980Z,28.87
2023-01-13T01:36:39.282Z,39.10
2023-01-13T01:39:09.726Z,27.70
2023-01-13T01:41:37.835Z,30.17
2023-01-13T01:44:41.606Z,37.13
2023-01-13T01:47:17.216Z,29.90
2023-01-13T01:49:46.048Z,28.00
2023-01-13T01:52:17.887Z,23.00
2023-01-13T01:54:57.428Z,23.17
2023-01-13T01:57:32.936Z,32.67
2023-01-13T02:00:01.261Z,36.10
2023-01-13T02:02:32.076Z,29.07
2023-01-13T02:05:01.883Z,29.43
2023-01-13T02:07:33.191Z,32.57
2023-01-13T02:10:06.322Z,25.50
2023-01-13T02:12:35.133Z,48.63
2023-01-13T02:15:08.219Z,33.17
2023-01-13T02:17:56.552Z,22.87
2023-01-13T02:20:54.170Z,38.57
2023-01-13T02:23:51.457Z,36.40
2023-01-13T02:26:43.288Z,42.53
2023-01-13T02:30:07.753Z,34.67
2023-01-13T02:32:38.927Z,27.53
2023-01-13T02:35:18.513Z,30.40
2023-01-13T02:37:46.147Z,34.03
2023-01-13T02:40:24.685Z,30.57
2023-01-13T02:43:20.585Z,44.63
2023-01-13T02:45:53.368Z,45.27
2023-01-13T02:48:23.713Z,29.33
2023-01-13T02:51:06.919Z,31.20
2023-01-13T02:53:52.341Z,32.33
2023-01-13T02:56:21.394Z,34.33
2023-01-13T02:58:49.795Z,50.90
2023-01-13T03:01:18.395Z,42.97
2023-01-13T03:03:46.981Z,35.77
2023-01-13T03:06:16.936Z,43.00
2023-01-13T03:09:03.840Z,36.20
2023-01-13T03:11:39.978Z,43.17
2023-01-13T03:14:24.385Z,38.67
2023-01-13T03:17:26.044Z,39.80
2023-01-13T03:20:14.617Z,47.57
2023-01-13T03:22:57.299Z,34.17
2023-01-13T03:25:32.944Z,59.03
2023-01-13T03:28:04.315Z,41.13
2023-01-13T03:30:37.968Z,36.87
2023-01-13T03:33:11.710Z,46.00
2023-01-13T03:35:43.554Z,47.33
2023-01-13T03:38:31.825Z,32.43
2023-01-13T03:41:03.622Z,39.30
2023-01-13T03:44:00.572Z,30.13
2023-01-13T03:46:53.123Z,45.53
2023-01-13T03:49:24.189Z,47.60
2023-01-13T03:51:57.229Z,39.13
2023-01-13T03:54:28.074Z,38.47
2023-01-13T03:57:00.019Z,45.87
2023-01-13T03:59:33.074Z,33.90
2023-01-13T04:02:26.202Z,47.50
2023-01-13T04:04:59.939Z,42.00
2023-01-13T04:07:45.734Z,38.00
2023-01-13T04:10:17.391Z,41.20
2023-01-13T04:13:02.829Z,22.83
2023-01-13T04:15:36.911Z,46.53
2023-01-13T04:18:24.197Z,41.60
2023-01-13T04:20:53.525Z,35.23
2023-01-13T04:23:21.788Z,30.97
2023-01-13T04:25:49.396Z,44.20
2023-01-13T04:28:20.545Z,42.47
2023-01-13T04:30:48.088Z,26.33
2023-01-13T04:33:17.319Z,32.53
2023-01-13T04:35:47.893Z,41.33
2023-01-13T04:38:17.299Z,45.40
2023-01-13T04:40:44.461Z,32.97
2023-01-13T04:43:11.634Z,34.10
2023-01-13T04:45:39.076Z,36.47
2023-01-13T04:48:06.475Z,38.47
2023-01-13T04:50:33.786Z,45.77
2023-01-13T04:53:01.379Z,37.37
2023-01-13T04:55:28.910Z,38.50
2023-01-13T04:57:55.996Z,50.30
2023-01-13T05:00:23.957Z,37.47
2023-01-13T05:02:51.849Z,33.70
2023-01-13T05:05:19.304Z,41.77
2023-01-13T05:07:46.479Z,36.50
2023-01-13T05:10:13.894Z,37.00
2023-01-13T05:12:59.901Z,38.87
2023-01-13T05:15:45.465Z,41.17
2023-01-13T05:18:13.087Z,52.77
2023-01-13T05:20:44.941Z,45.10
2023-01-13T05:23:30.701Z,37.93
2023-01-13T05:25:57.783Z,39.33
2023-01-13T05:28:24.855Z,30.43
2023-01-13T05:30:52.672Z,39.93
2023-01-13T05:33:23.101Z,56.50
2023-01-13T05:35:50.313Z,42.93
2023-01-13T05:38:18.665Z,44.50
2023-01-13T05:41:04.539Z,33.23
2023-01-13T05:43:34.960Z,43.17
2023-01-13T05:46:08.231Z,42.90
2023-01-13T05:48:40.667Z,41.93
2023-01-13T05:51:10.033Z,42.03
2023-01-13T05:53:37.431Z,40.53
2023-01-13T05:56:05.949Z,33.97
2023-01-13T05:58:33.451Z,35.07
2023-01-13T06:01:02.885Z,44.10
2023-01-13T06:03:30.026Z,25.93
2023-01-13T06:05:59.502Z,29.77
2023-01-13T06:08:26.790Z,29.00
2023-01-13T06:10:56.351Z,34.93
2023-01-13T06:13:29.328Z,46.67
2023-01-13T06:15:59.124Z,35.70
2023-01-13T06:18:29.168Z,31.57
2023-01-13T06:20:56.561Z,43.07
2023-01-13T06:23:24.163Z,37.37
2023-01-13T06:26:07.859Z,28.93
2023-01-13T06:28:35.055Z,45.33
2023-01-13T06:31:06.011Z,30.33
2023-01-13T06:33:41.139Z,45.67
2023-01-13T06:36:14.546Z,37.77
2023-01-13T06:38:45.457Z,39.40
2023-01-13T06:41:12.630Z,39.50
2023-01-13T06:43:41.037Z,25.47
2023-01-13T06:46:08.297Z,27.20
2023-01-13T06:48:36.170Z,34.27
2023-01-13T06:51:04.959Z,45.27
2023-01-13T06:53:32.322Z,45.70
2023-01-13T06:55:59.452Z,52.97
2023-01-13T06:58:27.066Z,32.70
2023-01-13T07:00:54.285Z,34.23
2023-01-13T07:03:21.642Z,35.93
2023-01-13T07:05:54.363Z,34.43
2023-01-13T07:08:22.639Z,32.53
2023-01-13T07:10:49.774Z,34.60
2023-01-13T07:13:35.407Z,33.63
2023-01-13T07:16:05.196Z,41.97
2023-01-13T07:18:33.539Z,27.20
2023-01-13T07:21:07.790Z,37.20
2023-01-13T07:23:37.951Z,29.33
2023-01-13T07:26:05.187Z,39.23
2023-01-13T07:28:35.168Z,34.70
2023-01-13T07:31:02.306Z,23.63
2023-01-13T07:33:33.172Z,36.50
2023-01-13T07:36:05.009Z,26.33
2023-01-13T07:38:35.467Z,41.37
2023-01-13T07:41:21.393Z,21.40
2023-01-13T07:43:48.723Z,31.70
2023-01-13T07:46:16.279Z,32.07
2023-01-13T07:48:43.354Z,34.83
2023-01-13T07:51:12.239Z,39.97
2023-01-13T07:53:39.468Z,24.90
2023-01-13T07:56:07.720Z,24.73
2023-01-13T07:58:36.989Z,36.43
2023-01-13T08:01:12.521Z,32.70
2023-01-13T08:03:40.641Z,36.10
2023-01-13T08:06:08.123Z,37.20
2023-01-13T08:08:35.397Z,26.73
2023-01-13T08:11:05.662Z,33.83
2023-01-13T08:13:33.166Z,24.20
2023-01-13T08:16:06.057Z,34.20
2023-01-13T08:18:34.359Z,27.33
2023-01-13T08:21:13.212Z,28.53
2023-01-13T08:23:41.771Z,34.90
2023-01-13T08:26:12.268Z,17.37
2023-01-13T08:28:42.357Z,33.83
2023-01-13T08:31:13.177Z,31.63
2023-01-13T08:33:40.501Z,20.20
2023-01-13T08:36:09.801Z,41.70
2023-01-13T08:38:37.837Z,32.17
2023-01-13T08:41:13.551Z,31.37
2023-01-13T08:43:43.656Z,28.23
2023-01-13T08:46:10.842Z,27.30
2023-01-13T08:48:38.090Z,30.53
2023-01-13T08:51:07.493Z,22.20
2023-01-13T08:53:34.875Z,21.27
2023-01-13T08:56:01.954Z,46.20
2023-01-13T08:58:29.252Z,17.80
2023-01-13T09:00:57.622Z,20.33
2023-01-13T09:03:24.829Z,25.10
2023-01-13T09:05:54.265Z,35.20
2023-01-13T09:08:24.737Z,19.17
2023-01-13T09:10:51.906Z,36.00
2023-01-13T09:13:20.412Z,34.80
2023-01-13T09:15:47.662Z,20.27
2023-01-13T09:18:17.272Z,18.07
2023-01-13T09:20:44.853Z,29.80
2023-01-13T09:23:11.949Z,23.20
2023-01-13T09:25:42.106Z,19.90
2023-01-13T09:28:09.362Z,32.57
2023-01-13T09:30:39.491Z,18.50
2023-01-13T09:33:25.287Z,25.53
2023-01-13T09:35:52.527Z,19.70
2023-01-13T09:38:19.576Z,24.97
2023-01-13T09:40:49.450Z,44.53
2023-01-13T09:43:41.050Z,22.27
2023-01-13T09:46:43.363Z,37.20
2023-01-13T09:49:43.002Z,21.13
2023-01-13T09:52:20.288Z,25.70
2023-01-13T09:54:57.924Z,17.20
2023-01-13T09:57:26.845Z,21.77
2023-01-13T09:59:53.937Z,11.73
2023-01-13T10:02:31.402Z,30.83
2023-01-13T10:05:35.763Z,29.07
2023-01-13T10:08:10.849Z,25.57
2023-01-13T10:10:45.531Z,19.33
2023-01-13T10:13:46.658Z,15.33
2023-01-13T10:16:20.392Z,20.03
2023-01-13T10:19:12.588Z,20.37
2023-01-13T10:22:04.857Z,22.60
2023-01-13T10:24:59.833Z,22.43
2023-01-13T10:27:36.782Z,20.23
2023-01-13T10:30:21.570Z,24.27
2023-01-13T10:33:12.038Z,16.83
2023-01-13T10:36:01.109Z,10.70
2023-01-13T10:38:37.466Z,18.13
2023-01-13T10:41:17.132Z,15.67
2023-01-13T10:43:58.476Z,23.67
2023-01-13T10:46:25.789Z,23.23
2023-01-13T10:48:55.815Z,17.23
2023-01-13T10:51:25.162Z,15.50
2023-01-13T10:53:57.256Z,20.07
2023-01-13T10:56:28.089Z,21.07
2023-01-13T10:59:16.105Z,30.77
2023-01-13T11:02:24.392Z,18.90
2023-01-13T11:05:00.811Z,11.30
2023-01-13T11:07:33.009Z,11.70
2023-01-13T11:10:17.799Z,11.80
2023-01-13T11:12:55.598Z,28.13
2023-01-13T11:15:39.119Z,14.50
2023-01-13T11:18:30.467Z,12.00
2023-01-13T11:20:58.810Z,22.90
2023-01-13T11:23:48.568Z,16.67
2023-01-13T11:26:22.408Z,9.80
2023-01-13T11:29:13.881Z,21.40
2023-01-13T11:31:47.454Z,18.20
2023-01-13T11:34:36.514Z,25.10
2023-01-13T11:37:19.041Z,17.73
2023-01-13T11:40:17.412Z,15.77
2023-01-13T11:42:48.310Z,13.57
2023-01-13T11:45:30.115Z,18.93
2023-01-13T11:48:00.446Z,20.73
2023-01-13T11:50:42.529Z,23.67
2023-01-13T11:53:44.293Z,19.03
2023-01-13T11:56:37.127Z,21.23
2023-01-13T11:59:19.134Z,14.90
2023-01-13T12:01:58.065Z,25.17
2023-01-13T12:04:25.323Z,29.03
2023-01-13T12:06:58.403Z,30.17
2023-01-13T12:10:00.693Z,22.23
2023-01-13T12:12:55.869Z,12.03
2023-01-13T12:15:26.075Z,29.50
2023-01-13T12:18:18.965Z,19.10
2023-01-13T12:21:12.565Z,19.80
2023-01-13T12:23:47.125Z,24.37
2023-01-13T12:26:16.845Z,28.67
2023-01-13T12:29:14.810Z,18.20
2023-01-13T12:31:43.254Z,27.83
2023-01-13T12:34:16.116Z,22.20
2023-01-13T12:37:20.503Z,18.30
2023-01-13T12:40:19.324Z,15.20
2023-01-13T12:43:04.943Z,25.57
2023-01-13T12:45:33.573Z,25.90
2023-01-13T12:48:01.518Z,21.30
2023-01-13T12:50:40.775Z,26.67
2023-01-13T12:53:31.098Z,28.23
2023-01-13T12:56:21.989Z,30.17
2023-01-13T12:58:49.147Z,23.47
2023-01-13T13:01:16.613Z,19.00
2023-01-13T13:04:13.691Z,34.03
2023-01-13T13:06:48.545Z,19.00
2023-01-13T13:09:35.685Z,24.40
2023-01-13T13:12:50.319Z,30.27
2023-01-13T13:15:26.354Z,21.03
2023-01-13T13:17:59.884Z,17.63
2023-01-13T13:20:54.009Z,23.50
2023-01-13T13:23:33.326Z,21.10
2023-01-13T13:26:21.427Z,30.90
2023-01-13T13:29:04.666Z,31.43
2023-01-13T13:31:49.927Z,34.17
2023-01-13T13:34:34.805Z,25.57
2023-01-13T13:37:56.364Z,23.07
2023-01-13T13:40:43.021Z,29.83
2023-01-13T13:43:32.752Z,23.93
2023-01-13T13:46:18.601Z,24.90
2023-01-13T13:48:54.269Z,26.83
2023-01-13T13:51:39.193Z,26.90
2023-01-13T13:54:15.248Z,19.97
2023-01-13T13:56:47.762Z,28.80
2023-01-13T13:59:25.343Z,25.10
2023-01-13T14:02:02.264Z,12.43
2023-01-13T14:04:37.089Z,18.70
2023-01-13T14:07:18.476Z,26.43
2023-01-13T14:09:53.812Z,22.67
2023-01-13T14:12:24.250Z,21.20
2023-01-13T14:14:51.989Z,34.13
2023-01-13T14:17:29.951Z,30.03
2023-01-13T14:20:00.604Z,35.27
2023-01-13T14:22:28.120Z,34.27
2023-01-13T14:24:58.642Z,23.60
2023-01-13T14:27:27.869Z,24.37
2023-01-13T14:29:58.303Z,16.53
2023-01-13T14:32:36.851Z,15.80
2023-01-13T14:35:07.369Z,17.40
2023-01-13T14:37:41.870Z,15.23
2023-01-13T14:40:39.427Z,13.10
2023-01-13T14:43:16.173Z,19.03
2023-01-13T14:46:00.936Z,12.90
2023-01-13T14:48:35.666Z,20.90
2023-01-13T14:51:06.766Z,17.10
2023-01-13T14:53:39.480Z,15.03
2023-01-13T14:56:44.284Z,14.60
2023-01-13T14:59:34.050Z,17.30
2023-01-13T15:02:22.118Z,21.40
2023-01-13T15:04:51.008Z,16.30
2023-01-13T15:07:27.318Z,23.83
2023-01-13T15:10:00.369Z,22.10
2023-01-13T15:12:39.539Z,28.33
2023-01-13T15:15:37.927Z,36.93
2023-01-13T15:18:18.410Z,26.43
2023-01-13T15:20:46.206Z,20.37
2023-01-13T15:23:13.291Z,22.10
2023-01-13T15:25:43.636Z,26.77
2023-01-13T15:28:25.067Z,30.03
2023-01-13T15:30:54.574Z,22.03
2023-01-13T15:33:22.686Z,22.93
2023-01-13T15:35:51.988Z,20.63
2023-01-13T15:38:21.535Z,28.70
2023-01-13T15:40:49.982Z,18.70
2023-01-13T15:43:38.251Z,23.13
2023-01-13T15:46:33.167Z,28.37
2023-01-13T15:49:21.037Z,19.33
2023-01-13T15:51:49.387Z,19.87
2023-01-13T15:54:22.831Z,31.07
2023-01-13T15:56:50.372Z,29.37
2023-01-13T15:59:25.164Z,17.13
2023-01-13T16:01:52.602Z,16.50
2023-01-13T16:04:19.696Z,12.27
2023-01-13T16:06:47.664Z,21.67
2023-01-13T16:09:17.004Z,12.07
2023-01-13T16:11:44.203Z,18.10
2023-01-13T16:14:11.355Z,23.30
2023-01-13T16:16:38.533Z,13.63
2023-01-13T16:19:08.001Z,10.27
2023-01-13T16:21:35.027Z,8.40
2023-01-13T16:24:02.073Z,11.93
2023-01-13T16:26:30.201Z,8.67
2023-01-13T16:28:58.505Z,19.23
2023-01-13T16:31:32.318Z,17.53
2023-01-13T16:34:03.720Z,24.33
2023-01-13T16:36:34.227Z,15.07
2023-01-13T16:39:02.294Z,17.93
2023-01-13T16:41:29.498Z,17.37
2023-01-13T16:43:56.889Z,24.63
2023-01-13T16:46:27.729Z,19.57
2023-01-13T16:49:04.116Z,15.63
2023-01-13T16:51:31.559Z,23.80
2023-01-13T16:53:59.068Z,26.63
2023-01-13T16:56:28.396Z,9.87
2023-01-13T16:58:57.845Z,21.60
2023-01-13T17:01:28.295Z,20.83
2023-01-13T17:03:56.771Z,28.33
2023-01-13T17:06:27.054Z,23.97
2023-01-13T17:08:54.203Z,33.37
2023-01-13T17:11:24.507Z,26.73
2023-01-13T17:13:51.776Z,28.57
2023-01-13T17:16:21.747Z,23.50
2023-01-13T17:18:51.694Z,31.47
2023-01-13T17:21:18.982Z,30.43
2023-01-13T17:23:46.095Z,25.37
2023-01-13T17:26:32.412Z,21.67
2023-01-13T17:29:00.817Z,21.90
2023-01-13T17:31:29.071Z,27.27
2023-01-13T17:33:56.527Z,28.03
2023-01-13T17:36:25.697Z,35.30
2023-01-13T17:38:53.115Z,21.70
2023-01-13T17:41:20.149Z,23.87
2023-01-13T17:43:47.524Z,30.43
2023-01-13T17:46:18.587Z,23.17
2023-01-13T17:48:46.950Z,24.63
2023-01-13T17:51:16.025Z,12.93
2023-01-13T17:53:45.542Z,32.87
2023-01-13T17:56:15.077Z,35.87
2023-01-13T18:01:30.893Z,22.97
2023-01-13T18:03:58.013Z,32.97
2023-01-13T18:06:25.224Z,48.93
2023-01-13T18:08:52.522Z,19.80
2023-01-13T18:11:24.088Z,16.77
2023-01-13T18:13:59.678Z,28.40
2023-01-13T18:16:31.804Z,26.90
2023-01-13T18:19:18.411Z,27.13
2023-01-13T18:22:04.792Z,20.47
2023-01-13T18:24:50.228Z,33.93
2023-01-13T18:27:19.638Z,27.10
2023-01-13T18:29:47.415Z,24.87
2023-01-13T18:32:18.321Z,23.00
2023-01-13T18:34:45.612Z,27.37
2023-01-13T18:37:14.751Z,25.43
2023-01-13T18:39:42.072Z,26.73
2023-01-13T18:42:29.389Z,23.60
2023-01-13T18:44:57.863Z,37.53
2023-01-13T18:47:26.303Z,38.03
2023-01-13T18:49:53.422Z,24.30
2023-01-13T18:52:20.787Z,24.47
2023-01-13T18:54:48.227Z,26.60
2023-01-13T18:57:16.135Z,19.70
2023-01-13T18:59:43.222Z,22.83
2023-01-13T19:02:18.770Z,30.13
2023-01-13T19:04:46.186Z,17.77
2023-01-13T19:07:21.889Z,22.87
2023-01-13T19:09:52.145Z,34.73
2023-01-13T19:12:28.320Z,31.53
2023-01-13T19:14:56.307Z,20.83
2023-01-13T19:17:25.507Z,33.83
2023-01-13T19:19:55.287Z,37.07
2023-01-13T19:22:29.877Z,36.53
2023-01-13T19:24:58.295Z,26.57
2023-01-13T19:27:27.939Z,30.77
2023-01-13T19:29:58.162Z,37.97
2023-01-13T19:32:25.681Z,32.60
2023-01-13T19:34:55.016Z,41.03
2023-01-13T19:37:22.111Z,41.60
2023-01-13T19:39:49.231Z,59.03
2023-01-13T19:42:34.586Z,34.10
2023-01-13T19:45:20.107Z,56.60
2023-01-13T19:47:47.196Z,47.13
2023-01-13T19:50:14.401Z,43.53
2023-01-13T19:52:42.765Z,35.07
2023-01-13T19:55:12.425Z,50.30
2023-01-13T19:57:40.878Z,44.97
2023-01-13T20:00:09.652Z,41.30
2023-01-13T20:02:44.985Z,35.73
2023-01-13T20:05:17.870Z,40.47
2023-01-13T20:07:45.023Z,30.70
2023-01-13T20:10:13.495Z,31.17
2023-01-13T20:12:41.757Z,21.30
2023-01-13T20:15:09.828Z,20.03
2023-01-13T20:17:36.932Z,23.23
2023-01-13T20:20:08.097Z,29.40
2023-01-13T20:22:37.481Z,26.40
2023-01-13T20:25:04.839Z,18.83
2023-01-13T20:27:31.977Z,9.17
2023-01-13T20:29:59.233Z,17.30
2023-01-13T20:32:26.416Z,25.73
2023-01-13T20:34:53.501Z,12.00
2023-01-13T20:37:20.563Z,8.03
2023-01-13T20:39:48.292Z,12.07
2023-01-13T20:42:30.724Z,19.27
2023-01-13T20:44:59.842Z,21.77
2023-01-13T20:47:28.247Z,10.50
2023-01-13T20:49:55.273Z,18.97
2023-01-13T20:52:22.860Z,28.40
2023-01-13T20:54:49.964Z,18.77
2023-01-13T20:57:19.510Z,19.53
2023-01-13T20:59:46.636Z,13.20
2023-01-13T21:02:15.779Z,18.70
2023-01-13T21:04:43.501Z,11.93
2023-01-13T21:07:11.148Z,22.60
2023-01-13T21:09:38.284Z,14.97
2023-01-13T21:12:24.848Z,14.83
2023-01-13T21:15:10.346Z,17.17
2023-01-13T21:17:56.107Z,19.10
2023-01-13T21:20:23.414Z,32.70
2023-01-13T21:22:50.501Z,13.13
2023-01-13T21:25:18.713Z,16.80
2023-01-13T21:27:46.177Z,19.13
2023-01-13T21:30:15.150Z,13.00
2023-01-13T21:32:43.773Z,15.20
2023-01-13T21:35:11.770Z,14.43
2023-01-13T21:37:41.034Z,7.50
2023-01-13T21:40:12.094Z,14.70
2023-01-13T21:42:57.866Z,23.60
2023-01-13T21:45:43.667Z,11.37
2023-01-13T21:48:10.811Z,13.77
2023-01-13T21:50:38.909Z,10.40
2023-01-13T21:53:09.812Z,11.30
2023-01-13T21:55:37.624Z,14.47
2023-01-13T21:58:14.670Z,15.40
2023-01-13T22:00:43.335Z,17.43
2023-01-13T22:03:12.426Z,16.43
2023-01-13T22:05:40.092Z,23.77
2023-01-13T22:08:07.741Z,15.77
2023-01-13T22:10:34.885Z,18.93
2023-01-13T22:13:22.886Z,16.20
2023-01-13T22:15:50.211Z,15.03
2023-01-13T22:18:18.515Z,20.03
2023-01-13T22:20:46.291Z,16.70
2023-01-13T22:23:13.721Z,20.93
2023-01-13T22:25:41.184Z,24.20
2023-01-13T22:28:09.417Z,15.77
2023-01-13T22:30:36.890Z,16.13
2023-01-13T22:33:04.142Z,19.17
2023-01-13T22:35:31.197Z,19.27
2023-01-13T22:38:00.149Z,21.00
2023-01-13T22:40:27.210Z,20.03
2023-01-13T22:42:54.248Z,18.40
2023-01-13T22:45:21.432Z,33.43
2023-01-13T22:47:49.690Z,25.47
2023-01-13T22:50:20.781Z,28.40
2023-01-13T22:52:47.908Z,18.23
2023-01-13T22:55:15.071Z,25.07
2023-01-13T22:57:47.715Z,11.53
2023-01-13T23:00:19.136Z,20.03
2023-01-13T23:02:46.645Z,14.20
2023-01-13T23:05:14.055Z,14.00
2023-01-13T23:07:44.055Z,14.97
2023-01-13T23:10:11.598Z,23.07
2023-01-13T23:12:38.707Z,29.37
2023-01-13T23:15:06.136Z,34.70
2023-01-13T23:17:33.258Z,17.63
2023-01-13T23:20:00.282Z,9.57
2023-01-13T23:22:27.327Z,8.50
2023-01-13T23:24:54.356Z,14.33
2023-01-13T23:27:21.446Z,8.93
2023-01-13T23:29:49.207Z,11.67
2023-01-13T23:32:16.173Z,8.57
2023-01-13T23:34:43.211Z,18.07
2023-01-13T23:37:10.232Z,19.53
2023-01-13T23:39:37.227Z,28.27
2023-01-13T23:42:04.300Z,16.30
2023-01-13T23:44:31.286Z,22.47
2023-01-13T23:46:58.519Z,25.17
2023-01-13T23:49:25.533Z,11.27
2023-01-13T23:51:54.080Z,20.63
2023-01-13T23:54:21.324Z,15.90
2023-01-13T23:56:51.095Z,21.03
2023-01-13T23:59:21.814Z,17.77
